Terminal Aerodrome Forecast
Issued by NWS Twin Cities, MN

Home | Current Version | Previous Version | Text Only | Print | Product List | Glossary On
Versions: 1 2 3 4 5 6 7 8 9 10 11 12 13 14 15 16 17 18 19
000
FTUS43 KMPX 022118 AAA
TAFSTC
TAF AMD
KSTC 022118Z 0221/0318 13009KT P6SM BKN015 OVC035
     FM022200 13007KT P6SM SCT015 BKN040
     FM022300 13005KT P6SM SCT050
     FM030500 11004KT 5SM BR FEW008
     FM030700 11004KT 2SM BR OVC006
     FM031500 13006KT P6SM SCT008 BKN015=

USA.gov is the U.S. government's official web portal to all federal, state and local government web resources and services.